Terminal Aerodrome Forecast
Issued by NWS

Home | Current Version | Previous Version | Text Only | Print | Product List | Glossary On
Versions: 1 2 3 4 5 6 7 8 9 10 11 12 13 14
000
FTUS42 KTBW 301730
TAFRSW
TAF
KRSW 301730Z 3018/0118 22008KT P6SM VCTS SCT030CB BKN120
     FM302000 25006KT P6SM SCT040 BKN120
     FM010300 VRB03KT P6SM SCT250
     FM011400 06006KT P6SM FEW030 SCT250=

USA.gov is the U.S. government's official web portal to all federal, state and local government web resources and services.